Minnekata, South Dakota
Current Conditions -  °F | °C
As of 11:53 PM on Wednesday 22 Oct 2014 (Local Time) from KCUT Reporting Station
Clear Clear  
Wind Chill:   Ceiling: Unl
Heat Index:   Visibility: 10mi
Dew Point: -5°   Wind: 3mph
Humidity: 57%   Direction: 210°SSW
Pressure: 30.07"   Gusts: NA
Location:  43.346°N, 103.483°W
Report Text: KCUT 230553Z AUTO 21003KT 10SM CLR 03/M05 A3007 RMK AO2 SLP164 T00281050 10089 21006 58000
Loading
Personal Weather Stations






























Interactive Weather Map
Tropical Storm Tracking
New forecast layout! Learn more

10-Day Weather Forecast

Advertisements
Track Severe Weather on mobile